sensor_id;sensor_type;location;lat;lon;timestamp;P1;durP1;ratioP1;P2;durP2;ratioP2
69485;SDS011;56677;51.710;5.366;2024-01-25T06:03:01;8.77;;;2.70;;
69485;SDS011;56677;51.710;5.366;2024-01-25T06:05:26;5.82;;;2.10;;
69485;SDS011;56677;51.710;5.366;2024-01-25T06:07:51;8.18;;;3.00;;
69485;SDS011;56677;51.710;5.366;2024-01-25T06:10:16;8.80;;;2.33;;
69485;SDS011;56677;51.710;5.366;2024-01-25T06:12:41;7.13;;;2.80;;
69485;SDS011;56677;51.710;5.366;2024-01-25T06:15:07;8.60;;;2.50;;
69485;SDS011;56677;51.710;5.366;2024-01-25T06:17:32;7.30;;;2.80;;
69485;SDS011;56677;51.710;5.366;2024-01-25T06:19:57;7.00;;;2.87;;
69485;SDS011;56677;51.710;5.366;2024-01-25T06:22:22;8.10;;;2.97;;
69485;SDS011;56677;51.710;5.366;2024-01-25T06:24:47;7.67;;;2.43;;
69485;SDS011;56677;51.710;5.366;2024-01-25T06:27:12;7.40;;;2.40;;
69485;SDS011;56677;51.710;5.366;2024-01-25T06:29:38;10.48;;;3.00;;
69485;SDS011;56677;51.710;5.366;2024-01-25T06:32:03;9.82;;;2.53;;
69485;SDS011;56677;51.710;5.366;2024-01-25T06:34:28;7.83;;;2.40;;
69485;SDS011;56677;51.710;5.366;2024-01-25T06:36:53;7.93;;;2.60;;
69485;SDS011;56677;51.710;5.366;2024-01-25T06:39:18;8.75;;;2.33;;
69485;SDS011;56677;51.710;5.366;2024-01-25T06:41:43;7.73;;;2.30;;
69485;SDS011;56677;51.710;5.366;2024-01-25T06:44:09;6.97;;;2.22;;
69485;SDS011;56677;51.710;5.366;2024-01-25T06:46:34;5.27;;;2.33;;
69485;SDS011;56677;51.710;5.366;2024-01-25T06:48:59;7.20;;;3.05;;
69485;SDS011;56677;51.710;5.366;2024-01-25T06:51:24;8.53;;;2.60;;
69485;SDS011;56677;51.710;5.366;2024-01-25T06:53:49;6.53;;;2.05;;
69485;SDS011;56677;51.710;5.366;2024-01-25T06:56:14;7.55;;;2.28;;
69485;SDS011;56677;51.710;5.366;2024-01-25T06:58:39;7.97;;;2.75;;
69485;SDS011;56677;51.710;5.366;2024-01-25T07:01:04;6.55;;;2.22;;
69485;SDS011;56677;51.710;5.366;2024-01-25T07:03:29;7.47;;;2.42;;
69485;SDS011;56677;51.710;5.366;2024-01-25T07:05:55;7.03;;;2.38;;
69485;SDS011;56677;51.710;5.366;2024-01-25T07:08:20;5.90;;;2.10;;
69485;SDS011;56677;51.710;5.366;2024-01-25T07:10:45;8.60;;;2.43;;
69485;SDS011;56677;51.710;5.366;2024-01-25T07:13:10;8.45;;;2.20;;
69485;SDS011;56677;51.710;5.366;2024-01-25T07:15:35;8.47;;;2.57;;
69485;SDS011;56677;51.710;5.366;2024-01-25T07:18:00;8.98;;;2.65;;
69485;SDS011;56677;51.710;5.366;2024-01-25T07:20:26;7.30;;;2.60;;
69485;SDS011;56677;51.710;5.366;2024-01-25T07:22:51;7.25;;;2.30;;
69485;SDS011;56677;51.710;5.366;2024-01-25T07:25:16;9.02;;;2.65;;
69485;SDS011;56677;51.710;5.366;2024-01-25T07:27:44;13.05;;;2.63;;
69485;SDS011;56677;51.710;5.366;2024-01-25T07:30:10;8.32;;;3.03;;
69485;SDS011;56677;51.710;5.366;2024-01-25T07:32:35;11.03;;;2.57;;
69485;SDS011;56677;51.710;5.366;2024-01-25T07:35:00;12.30;;;2.90;;
69485;SDS011;56677;51.710;5.366;2024-01-25T07:37:25;9.70;;;2.80;;
69485;SDS011;56677;51.710;5.366;2024-01-25T07:39:51;10.15;;;3.47;;
69485;SDS011;56677;51.710;5.366;2024-01-25T07:42:16;8.63;;;3.07;;
69485;SDS011;56677;51.710;5.366;2024-01-25T07:44:41;10.67;;;2.87;;
69485;SDS011;56677;51.710;5.366;2024-01-25T07:47:06;11.25;;;3.08;;
69485;SDS011;56677;51.710;5.366;2024-01-25T07:49:31;9.50;;;2.75;;
69485;SDS011;56677;51.710;5.366;2024-01-25T07:51:56;9.23;;;2.95;;
69485;SDS011;56677;51.710;5.366;2024-01-25T07:54:22;8.00;;;2.50;;
69485;SDS011;56677;51.710;5.366;2024-01-25T07:56:47;9.37;;;2.70;;
69485;SDS011;56677;51.710;5.366;2024-01-25T07:59:12;10.57;;;2.70;;
69485;SDS011;56677;51.710;5.366;2024-01-25T08:01:37;10.43;;;3.30;;
69485;SDS011;56677;51.710;5.366;2024-01-25T08:04:03;7.77;;;2.70;;
69485;SDS011;56677;51.710;5.366;2024-01-25T08:06:28;8.37;;;2.60;;
69485;SDS011;56677;51.710;5.366;2024-01-25T08:08:53;8.65;;;2.63;;
69485;SDS011;56677;51.710;5.366;2024-01-25T08:11:18;8.25;;;2.85;;
69485;SDS011;56677;51.710;5.366;2024-01-25T08:13:43;9.38;;;2.97;;
69485;SDS011;56677;51.710;5.366;2024-01-25T08:16:09;8.83;;;2.67;;
69485;SDS011;56677;51.710;5.366;2024-01-25T08:18:34;11.57;;;2.90;;
69485;SDS011;56677;51.710;5.366;2024-01-25T08:20:59;10.75;;;2.60;;
69485;SDS011;56677;51.710;5.366;2024-01-25T08:23:24;8.00;;;2.55;;
69485;SDS011;56677;51.710;5.366;2024-01-25T08:25:49;9.30;;;2.80;;
69485;SDS011;56677;51.710;5.366;2024-01-25T08:28:15;8.98;;;2.85;;
69485;SDS011;56677;51.710;5.366;2024-01-25T08:30:40;13.37;;;3.40;;
69485;SDS011;56677;51.710;5.366;2024-01-25T08:33:05;11.20;;;3.47;;
69485;SDS011;56677;51.710;5.366;2024-01-25T08:35:30;15.55;;;4.50;;
69485;SDS011;56677;51.710;5.366;2024-01-25T08:37:55;24.80;;;5.77;;
69485;SDS011;56677;51.710;5.366;2024-01-25T08:40:20;17.60;;;5.60;;
69485;SDS011;56677;51.710;5.366;2024-01-25T08:42:45;25.45;;;6.85;;
69485;SDS011;56677;51.710;5.366;2024-01-25T08:45:11;26.95;;;6.88;;
69485;SDS011;56677;51.710;5.366;2024-01-25T08:47:36;19.50;;;6.07;;
69485;SDS011;56677;51.710;5.366;2024-01-25T08:50:01;26.10;;;8.10;;
69485;SDS011;56677;51.710;5.366;2024-01-25T08:52:26;28.27;;;8.97;;
69485;SDS011;56677;51.710;5.366;2024-01-25T08:54:51;30.85;;;9.80;;
69485;SDS011;56677;51.710;5.366;2024-01-25T08:57:17;31.17;;;10.47;;
69485;SDS011;56677;51.710;5.366;2024-01-25T08:59:42;33.67;;;10.27;;
69485;SDS011;56677;51.710;5.366;2024-01-25T09:02:07;30.85;;;10.05;;
69485;SDS011;56677;51.710;5.366;2024-01-25T09:04:32;31.23;;;10.55;;
69485;SDS011;56677;51.710;5.366;2024-01-25T09:06:57;39.03;;;11.30;;
69485;SDS011;56677;51.710;5.366;2024-01-25T09:09:22;32.23;;;11.07;;
69485;SDS011;56677;51.710;5.366;2024-01-25T09:11:48;34.50;;;9.57;;
69485;SDS011;56677;51.710;5.366;2024-01-25T09:14:13;43.78;;;10.82;;
69485;SDS011;56677;51.710;5.366;2024-01-25T09:16:38;31.97;;;11.30;;
69485;SDS011;56677;51.710;5.366;2024-01-25T09:19:03;40.58;;;11.75;;
69485;SDS011;56677;51.710;5.366;2024-01-25T09:21:28;43.17;;;11.88;;
69485;SDS011;56677;51.710;5.366;2024-01-25T09:23:53;38.17;;;12.32;;
69485;SDS011;56677;51.710;5.366;2024-01-25T09:26:18;44.47;;;12.38;;
69485;SDS011;56677;51.710;5.366;2024-01-25T09:28:43;42.35;;;11.95;;
69485;SDS011;56677;51.710;5.366;2024-01-25T09:31:09;48.13;;;12.80;;
69485;SDS011;56677;51.710;5.366;2024-01-25T09:33:34;33.83;;;11.27;;
69485;SDS011;56677;51.710;5.366;2024-01-25T09:35:59;40.97;;;12.20;;
69485;SDS011;56677;51.710;5.366;2024-01-25T09:38:24;41.05;;;12.23;;
69485;SDS011;56677;51.710;5.366;2024-01-25T09:40:49;36.08;;;11.32;;
69485;SDS011;56677;51.710;5.366;2024-01-25T09:43:14;40.30;;;12.37;;
69485;SDS011;56677;51.710;5.366;2024-01-25T09:45:40;37.55;;;10.52;;
69485;SDS011;56677;51.710;5.366;2024-01-25T09:48:06;30.23;;;10.10;;
69485;SDS011;56677;51.710;5.366;2024-01-25T09:50:31;33.80;;;10.37;;
69485;SDS011;56677;51.710;5.366;2024-01-25T09:52:56;31.67;;;10.20;;
69485;SDS011;56677;51.710;5.366;2024-01-25T09:55:24;31.67;;;10.00;;
69485;SDS011;56677;51.710;5.366;2024-01-25T09:57:49;29.48;;;10.10;;
69485;SDS011;56677;51.710;5.366;2024-01-25T10:00:17;35.37;;;10.60;;
69485;SDS011;56677;51.710;5.366;2024-01-25T10:02:42;31.10;;;9.60;;
69485;SDS011;56677;51.710;5.366;2024-01-25T10:05:07;28.48;;;10.20;;
69485;SDS011;56677;51.710;5.366;2024-01-25T10:07:36;30.37;;;9.60;;
69485;SDS011;56677;51.710;5.366;2024-01-25T10:10:01;33.45;;;8.82;;
69485;SDS011;56677;51.710;5.366;2024-01-25T10:12:26;30.98;;;8.75;;
69485;SDS011;56677;51.710;5.366;2024-01-25T10:14:51;30.08;;;8.48;;
69485;SDS011;56677;51.710;5.366;2024-01-25T10:17:16;28.08;;;9.32;;
69485;SDS011;56677;51.710;5.366;2024-01-25T10:19:44;27.17;;;8.82;;
69485;SDS011;56677;51.710;5.366;2024-01-25T10:22:09;27.83;;;8.47;;
69485;SDS011;56677;51.710;5.366;2024-01-25T10:24:34;29.38;;;7.57;;
69485;SDS011;56677;51.710;5.366;2024-01-25T10:27:00;29.80;;;8.40;;
69485;SDS011;56677;51.710;5.366;2024-01-25T10:29:25;28.85;;;7.43;;
69485;SDS011;56677;51.710;5.366;2024-01-25T10:31:50;22.42;;;7.60;;
69485;SDS011;56677;51.710;5.366;2024-01-25T10:34:16;26.60;;;7.95;;
69485;SDS011;56677;51.710;5.366;2024-01-25T10:36:41;22.23;;;7.73;;
69485;SDS011;56677;51.710;5.366;2024-01-25T10:39:07;23.57;;;7.30;;
69485;SDS011;56677;51.710;5.366;2024-01-25T10:41:33;21.08;;;6.47;;
69485;SDS011;56677;51.710;5.366;2024-01-25T10:43:58;22.70;;;6.23;;
69485;SDS011;56677;51.710;5.366;2024-01-25T10:46:24;21.75;;;7.43;;
69485;SDS011;56677;51.710;5.366;2024-01-25T10:48:49;19.42;;;6.00;;
69485;SDS011;56677;51.710;5.366;2024-01-25T10:51:15;22.13;;;6.73;;
69485;SDS011;56677;51.710;5.366;2024-01-25T10:53:41;17.70;;;5.88;;
69485;SDS011;56677;51.710;5.366;2024-01-25T10:56:06;16.27;;;5.93;;
69485;SDS011;56677;51.710;5.366;2024-01-25T10:58:31;19.03;;;6.40;;
69485;SDS011;56677;51.710;5.366;2024-01-25T11:00:57;20.20;;;5.73;;
69485;SDS011;56677;51.710;5.366;2024-01-25T11:03:28;18.93;;;6.07;;
69485;SDS011;56677;51.710;5.366;2024-01-25T11:06:09;19.60;;;6.22;;
69485;SDS011;56677;51.710;5.366;2024-01-25T11:08:35;20.42;;;5.75;;
69485;SDS011;56677;51.710;5.366;2024-01-25T11:11:00;19.30;;;6.33;;
69485;SDS011;56677;51.710;5.366;2024-01-25T11:13:26;17.23;;;5.67;;
69485;SDS011;56677;51.710;5.366;2024-01-25T11:15:51;15.48;;;5.60;;
69485;SDS011;56677;51.710;5.366;2024-01-25T11:18:16;17.80;;;5.15;;
69485;SDS011;56677;51.710;5.366;2024-01-25T11:20:41;18.50;;;5.63;;
69485;SDS011;56677;51.710;5.366;2024-01-25T11:23:07;15.98;;;6.13;;
69485;SDS011;56677;51.710;5.366;2024-01-25T11:25:33;15.57;;;5.47;;
69485;SDS011;56677;51.710;5.366;2024-01-25T11:27:58;17.95;;;5.35;;
69485;SDS011;56677;51.710;5.366;2024-01-25T11:30:25;17.00;;;5.67;;
69485;SDS011;56677;51.710;5.366;2024-01-25T11:32:50;20.35;;;5.55;;
69485;SDS011;56677;51.710;5.366;2024-01-25T11:35:15;17.07;;;5.10;;
69485;SDS011;56677;51.710;5.366;2024-01-25T11:37:40;15.43;;;5.43;;
69485;SDS011;56677;51.710;5.366;2024-01-25T11:40:06;17.45;;;5.25;;
69485;SDS011;56677;51.710;5.366;2024-01-25T11:42:31;16.40;;;5.77;;
69485;SDS011;56677;51.710;5.366;2024-01-25T11:44:56;17.67;;;5.30;;
69485;SDS011;56677;51.710;5.366;2024-01-25T11:47:21;13.73;;;4.60;;
69485;SDS011;56677;51.710;5.366;2024-01-25T11:49:46;14.07;;;4.97;;
69485;SDS011;56677;51.710;5.366;2024-01-25T11:52:12;12.88;;;5.03;;
69485;SDS011;56677;51.710;5.366;2024-01-25T11:54:37;14.98;;;5.13;;
69485;SDS011;56677;51.710;5.366;2024-01-25T11:57:02;13.67;;;4.83;;
69485;SDS011;56677;51.710;5.366;2024-01-25T11:59:27;16.33;;;4.60;;
69485;SDS011;56677;51.710;5.366;2024-01-25T12:01:55;17.92;;;5.13;;
69485;SDS011;56677;51.710;5.366;2024-01-25T12:04:20;15.50;;;5.07;;
69485;SDS011;56677;51.710;5.366;2024-01-25T12:06:45;16.00;;;4.50;;
69485;SDS011;56677;51.710;5.366;2024-01-25T12:09:12;12.45;;;5.22;;
69485;SDS011;56677;51.710;5.366;2024-01-25T12:11:40;13.83;;;4.97;;
69485;SDS011;56677;51.710;5.366;2024-01-25T12:14:06;14.23;;;4.72;;
69485;SDS011;56677;51.710;5.366;2024-01-25T12:16:32;11.37;;;4.13;;
69485;SDS011;56677;51.710;5.366;2024-01-25T12:18:57;16.17;;;4.43;;
69485;SDS011;56677;51.710;5.366;2024-01-25T12:21:23;14.65;;;4.35;;
69485;SDS011;56677;51.710;5.366;2024-01-25T12:23:48;11.57;;;4.15;;
69485;SDS011;56677;51.710;5.366;2024-01-25T12:26:13;14.10;;;5.05;;
69485;SDS011;56677;51.710;5.366;2024-01-25T12:28:40;14.15;;;4.95;;
69485;SDS011;56677;51.710;5.366;2024-01-25T12:31:06;10.67;;;4.50;;
69485;SDS011;56677;51.710;5.366;2024-01-25T12:33:31;12.93;;;4.03;;
69485;SDS011;56677;51.710;5.366;2024-01-25T12:35:57;14.57;;;4.10;;
69485;SDS011;56677;51.710;5.366;2024-01-25T12:38:22;12.43;;;4.37;;
69485;SDS011;56677;51.710;5.366;2024-01-25T12:40:48;11.90;;;4.10;;
69485;SDS011;56677;51.710;5.366;2024-01-25T12:43:14;12.43;;;4.50;;
69485;SDS011;56677;51.710;5.366;2024-01-25T12:45:39;13.30;;;5.20;;
69485;SDS011;56677;51.710;5.366;2024-01-25T12:48:04;12.73;;;3.88;;
69485;SDS011;56677;51.710;5.366;2024-01-25T12:50:29;11.73;;;4.20;;
69485;SDS011;56677;51.710;5.366;2024-01-25T12:52:54;13.63;;;4.07;;
69485;SDS011;56677;51.710;5.366;2024-01-25T12:55:20;12.07;;;4.20;;
69485;SDS011;56677;51.710;5.366;2024-01-25T12:57:45;10.50;;;4.40;;
69485;SDS011;56677;51.710;5.366;2024-01-25T13:00:10;11.52;;;3.70;;
69485;SDS011;56677;51.710;5.366;2024-01-25T13:02:35;11.83;;;3.97;;
69485;SDS011;56677;51.710;5.366;2024-01-25T13:05:00;11.77;;;3.63;;
69485;SDS011;56677;51.710;5.366;2024-01-25T13:07:25;11.07;;;3.53;;
69485;SDS011;56677;51.710;5.366;2024-01-25T13:09:50;9.77;;;3.80;;
69485;SDS011;56677;51.710;5.366;2024-01-25T13:12:16;10.98;;;3.65;;
69485;SDS011;56677;51.710;5.366;2024-01-25T13:14:41;11.48;;;4.35;;
69485;SDS011;56677;51.710;5.366;2024-01-25T13:17:06;11.40;;;3.80;;
69485;SDS011;56677;51.710;5.366;2024-01-25T13:19:31;10.45;;;4.03;;
69485;SDS011;56677;51.710;5.366;2024-01-25T13:21:56;10.57;;;3.83;;
69485;SDS011;56677;51.710;5.366;2024-01-25T13:24:21;11.02;;;3.88;;
69485;SDS011;56677;51.710;5.366;2024-01-25T13:26:46;9.52;;;4.10;;
69485;SDS011;56677;51.710;5.366;2024-01-25T13:29:11;10.50;;;3.47;;
69485;SDS011;56677;51.710;5.366;2024-01-25T13:31:37;11.05;;;4.20;;
69485;SDS011;56677;51.710;5.366;2024-01-25T13:34:02;9.07;;;3.58;;
69485;SDS011;56677;51.710;5.366;2024-01-25T13:36:27;12.85;;;4.05;;
69485;SDS011;56677;51.710;5.366;2024-01-25T13:38:52;11.27;;;4.47;;
69485;SDS011;56677;51.710;5.366;2024-01-25T13:41:17;11.63;;;3.97;;
69485;SDS011;56677;51.710;5.366;2024-01-25T13:43:42;9.60;;;2.87;;
69485;SDS011;56677;51.710;5.366;2024-01-25T13:46:07;11.23;;;3.63;;
69485;SDS011;56677;51.710;5.366;2024-01-25T13:48:32;9.65;;;3.45;;
69485;SDS011;56677;51.710;5.366;2024-01-25T13:50:58;11.70;;;3.60;;
69485;SDS011;56677;51.710;5.366;2024-01-25T13:53:23;9.70;;;3.58;;
69485;SDS011;56677;51.710;5.366;2024-01-25T13:55:48;11.38;;;4.03;;
69485;SDS011;56677;51.710;5.366;2024-01-25T13:58:13;8.75;;;3.63;;
69485;SDS011;56677;51.710;5.366;2024-01-25T14:00:39;9.93;;;3.72;;
69485;SDS011;56677;51.710;5.366;2024-01-25T14:03:04;9.13;;;3.70;;
69485;SDS011;56677;51.710;5.366;2024-01-25T14:05:29;9.13;;;3.30;;
69485;SDS011;56677;51.710;5.366;2024-01-25T14:07:54;10.20;;;3.47;;
69485;SDS011;56677;51.710;5.366;2024-01-25T14:10:19;9.20;;;3.13;;
69485;SDS011;56677;51.710;5.366;2024-01-25T14:12:44;9.70;;;3.50;;
69485;SDS011;56677;51.710;5.366;2024-01-25T14:15:10;11.10;;;3.58;;
69485;SDS011;56677;51.710;5.366;2024-01-25T14:17:35;10.48;;;3.47;;
69485;SDS011;56677;51.710;5.366;2024-01-25T14:20:00;9.10;;;3.10;;
69485;SDS011;56677;51.710;5.366;2024-01-25T14:22:25;10.87;;;3.47;;
69485;SDS011;56677;51.710;5.366;2024-01-25T14:24:50;15.43;;;3.88;;
69485;SDS011;56677;51.710;5.366;2024-01-25T14:27:15;8.40;;;3.08;;
69485;SDS011;56677;51.710;5.366;2024-01-25T14:29:40;13.68;;;3.50;;
69485;SDS011;56677;51.710;5.366;2024-01-25T14:32:06;10.63;;;2.97;;
69485;SDS011;56677;51.710;5.366;2024-01-25T14:34:31;10.32;;;3.17;;
69485;SDS011;56677;51.710;5.366;2024-01-25T14:36:56;11.50;;;3.25;;
69485;SDS011;56677;51.710;5.366;2024-01-25T14:39:21;10.40;;;3.33;;
69485;SDS011;56677;51.710;5.366;2024-01-25T14:41:46;9.53;;;3.10;;
69485;SDS011;56677;51.710;5.366;2024-01-25T14:44:11;11.30;;;3.40;;
69485;SDS011;56677;51.710;5.366;2024-01-25T14:46:37;9.23;;;3.15;;
69485;SDS011;56677;51.710;5.366;2024-01-25T14:49:02;9.80;;;3.45;;
69485;SDS011;56677;51.710;5.366;2024-01-25T14:51:27;8.38;;;3.45;;
69485;SDS011;56677;51.710;5.366;2024-01-25T14:53:53;9.55;;;3.25;;
69485;SDS011;56677;51.710;5.366;2024-01-25T14:56:18;8.35;;;2.65;;
69485;SDS011;56677;51.710;5.366;2024-01-25T14:58:43;9.45;;;3.38;;
69485;SDS011;56677;51.710;5.366;2024-01-25T15:01:12;9.00;;;3.45;;
69485;SDS011;56677;51.710;5.366;2024-01-25T15:03:37;8.80;;;3.67;;
69485;SDS011;56677;51.710;5.366;2024-01-25T15:06:02;8.27;;;3.33;;
69485;SDS011;56677;51.710;5.366;2024-01-25T15:08:27;10.53;;;3.40;;
69485;SDS011;56677;51.710;5.366;2024-01-25T15:10:52;11.88;;;3.95;;
69485;SDS011;56677;51.710;5.366;2024-01-25T15:13:17;10.68;;;3.80;;
69485;SDS011;56677;51.710;5.366;2024-01-25T15:15:42;11.30;;;3.93;;
69485;SDS011;56677;51.710;5.366;2024-01-25T15:18:08;10.33;;;4.13;;
69485;SDS011;56677;51.710;5.366;2024-01-25T15:20:33;9.63;;;3.50;;
69485;SDS011;56677;51.710;5.366;2024-01-25T15:22:58;9.68;;;3.70;;
69485;SDS011;56677;51.710;5.366;2024-01-25T15:25:23;10.10;;;4.32;;
69485;SDS011;56677;51.710;5.366;2024-01-25T15:27:48;7.90;;;3.72;;
69485;SDS011;56677;51.710;5.366;2024-01-25T15:30:13;11.70;;;3.67;;
69485;SDS011;56677;51.710;5.366;2024-01-25T15:32:41;9.67;;;3.87;;
69485;SDS011;56677;51.710;5.366;2024-01-25T15:35:06;8.37;;;3.50;;
69485;SDS011;56677;51.710;5.366;2024-01-25T15:37:31;10.77;;;3.80;;
69485;SDS011;56677;51.710;5.366;2024-01-25T15:39:56;11.60;;;3.75;;
69485;SDS011;56677;51.710;5.366;2024-01-25T15:42:21;10.70;;;3.83;;
69485;SDS011;56677;51.710;5.366;2024-01-25T15:44:46;8.30;;;3.38;;
69485;SDS011;56677;51.710;5.366;2024-01-25T15:47:11;12.50;;;3.50;;
69485;SDS011;56677;51.710;5.366;2024-01-25T15:49:37;8.80;;;3.33;;
69485;SDS011;56677;51.710;5.366;2024-01-25T15:52:02;8.85;;;3.40;;
69485;SDS011;56677;51.710;5.366;2024-01-25T15:54:27;9.13;;;3.50;;
69485;SDS011;56677;51.710;5.366;2024-01-25T15:56:52;12.77;;;3.95;;
69485;SDS011;56677;51.710;5.366;2024-01-25T15:59:17;9.18;;;3.83;;
69485;SDS011;56677;51.710;5.366;2024-01-25T16:01:42;10.60;;;3.90;;
69485;SDS011;56677;51.710;5.366;2024-01-25T16:04:07;7.57;;;3.45;;
69485;SDS011;56677;51.710;5.366;2024-01-25T16:06:32;9.48;;;3.47;;
69485;SDS011;56677;51.710;5.366;2024-01-25T16:09:01;8.97;;;3.50;;
69485;SDS011;56677;51.710;5.366;2024-01-25T16:11:26;10.93;;;3.35;;
69485;SDS011;56677;51.710;5.366;2024-01-25T16:13:52;8.37;;;3.33;;
69485;SDS011;56677;51.710;5.366;2024-01-25T16:16:17;8.15;;;3.40;;
69485;SDS011;56677;51.710;5.366;2024-01-25T16:18:42;8.13;;;3.43;;
69485;SDS011;56677;51.710;5.366;2024-01-25T16:21:07;13.55;;;4.07;;
69485;SDS011;56677;51.710;5.366;2024-01-25T16:23:32;9.13;;;3.78;;
69485;SDS011;56677;51.710;5.366;2024-01-25T16:25:57;9.07;;;2.90;;
69485;SDS011;56677;51.710;5.366;2024-01-25T16:28:22;11.82;;;4.15;;
69485;SDS011;56677;51.710;5.366;2024-01-25T16:30:47;9.55;;;4.03;;
69485;SDS011;56677;51.710;5.366;2024-01-25T16:33:13;10.55;;;4.05;;
69485;SDS011;56677;51.710;5.366;2024-01-25T16:35:38;11.52;;;3.50;;
69485;SDS011;56677;51.710;5.366;2024-01-25T16:38:03;14.70;;;5.30;;
69485;SDS011;56677;51.710;5.366;2024-01-25T16:40:28;8.15;;;3.47;;
69485;SDS011;56677;51.710;5.366;2024-01-25T16:42:53;11.75;;;3.72;;
69485;SDS011;56677;51.710;5.366;2024-01-25T16:45:18;11.53;;;3.70;;
69485;SDS011;56677;51.710;5.366;2024-01-25T16:47:43;10.73;;;4.07;;
69485;SDS011;56677;51.710;5.366;2024-01-25T16:50:08;8.95;;;3.55;;
69485;SDS011;56677;51.710;5.366;2024-01-25T16:52:34;11.40;;;4.33;;
69485;SDS011;56677;51.710;5.366;2024-01-25T16:54:59;10.15;;;4.25;;
69485;SDS011;56677;51.710;5.366;2024-01-25T16:57:24;9.17;;;3.83;;
69485;SDS011;56677;51.710;5.366;2024-01-25T16:59:49;8.70;;;4.00;;
69485;SDS011;56677;51.710;5.366;2024-01-25T17:02:14;9.30;;;2.97;;
69485;SDS011;56677;51.710;5.366;2024-01-25T17:04:39;8.55;;;3.50;;
69485;SDS011;56677;51.710;5.366;2024-01-25T17:07:04;7.73;;;3.57;;
69485;SDS011;56677;51.710;5.366;2024-01-25T17:09:30;8.35;;;3.67;;
69485;SDS011;56677;51.710;5.366;2024-01-25T17:11:55;12.85;;;3.67;;
69485;SDS011;56677;51.710;5.366;2024-01-25T17:14:20;12.13;;;4.35;;
69485;SDS011;56677;51.710;5.366;2024-01-25T17:16:45;7.65;;;3.42;;
69485;SDS011;56677;51.710;5.366;2024-01-25T17:19:10;8.97;;;3.23;;
69485;SDS011;56677;51.710;5.366;2024-01-25T17:21:35;8.52;;;3.53;;
69485;SDS011;56677;51.710;5.366;2024-01-25T17:24:00;9.43;;;3.40;;
69485;SDS011;56677;51.710;5.366;2024-01-25T17:26:26;9.67;;;3.07;;
69485;SDS011;56677;51.710;5.366;2024-01-25T17:28:51;7.78;;;3.08;;
69485;SDS011;56677;51.710;5.366;2024-01-25T17:31:16;7.03;;;3.40;;
69485;SDS011;56677;51.710;5.366;2024-01-25T17:33:41;6.73;;;3.27;;
69485;SDS011;56677;51.710;5.366;2024-01-25T17:36:06;8.45;;;3.28;;
69485;SDS011;56677;51.710;5.366;2024-01-25T17:38:32;12.63;;;3.10;;
69485;SDS011;56677;51.710;5.366;2024-01-25T17:40:57;9.30;;;3.60;;
69485;SDS011;56677;51.710;5.366;2024-01-25T17:43:22;16.97;;;3.13;;
69485;SDS011;56677;51.710;5.366;2024-01-25T17:45:47;9.93;;;3.50;;
69485;SDS011;56677;51.710;5.366;2024-01-25T17:48:12;11.00;;;3.17;;
69485;SDS011;56677;51.710;5.366;2024-01-25T17:50:38;10.77;;;3.45;;
69485;SDS011;56677;51.710;5.366;2024-01-25T17:53:03;12.63;;;3.30;;
69485;SDS011;56677;51.710;5.366;2024-01-25T17:55:28;8.73;;;2.92;;
69485;SDS011;56677;51.710;5.366;2024-01-25T17:57:53;10.77;;;3.28;;
69485;SDS011;56677;51.710;5.366;2024-01-25T18:00:18;8.30;;;3.40;;
69485;SDS011;56677;51.710;5.366;2024-01-25T18:02:43;8.50;;;3.20;;
69485;SDS011;56677;51.710;5.366;2024-01-25T18:05:08;10.15;;;3.20;;
69485;SDS011;56677;51.710;5.366;2024-01-25T18:07:34;8.23;;;3.03;;
69485;SDS011;56677;51.710;5.366;2024-01-25T18:09:59;14.17;;;3.20;;
69485;SDS011;56677;51.710;5.366;2024-01-25T18:12:24;7.60;;;2.77;;
69485;SDS011;56677;51.710;5.366;2024-01-25T18:14:49;11.20;;;3.22;;
69485;SDS011;56677;51.710;5.366;2024-01-25T18:17:14;5.78;;;2.88;;
69485;SDS011;56677;51.710;5.366;2024-01-25T18:19:39;8.70;;;3.53;;
69485;SDS011;56677;51.710;5.366;2024-01-25T18:22:05;8.32;;;3.30;;
69485;SDS011;56677;51.710;5.366;2024-01-25T18:24:30;13.13;;;3.13;;
69485;SDS011;56677;51.710;5.366;2024-01-25T18:26:55;9.15;;;3.13;;
69485;SDS011;56677;51.710;5.366;2024-01-25T18:29:20;8.88;;;4.22;;
69485;SDS011;56677;51.710;5.366;2024-01-25T18:31:45;10.93;;;2.63;;
69485;SDS011;56677;51.710;5.366;2024-01-25T18:34:10;8.57;;;3.30;;
69485;SDS011;56677;51.710;5.366;2024-01-25T18:36:35;9.67;;;3.23;;
69485;SDS011;56677;51.710;5.366;2024-01-25T18:39:01;7.93;;;3.00;;
69485;SDS011;56677;51.710;5.366;2024-01-25T18:41:26;8.27;;;3.37;;
69485;SDS011;56677;51.710;5.366;2024-01-25T18:43:51;11.13;;;3.08;;
69485;SDS011;56677;51.710;5.366;2024-01-25T18:46:16;10.18;;;3.67;;
69485;SDS011;56677;51.710;5.366;2024-01-25T18:48:42;8.32;;;3.60;;
69485;SDS011;56677;51.710;5.366;2024-01-25T18:51:07;10.57;;;3.92;;
69485;SDS011;56677;51.710;5.366;2024-01-25T18:53:32;7.23;;;4.00;;
69485;SDS011;56677;51.710;5.366;2024-01-25T18:55:57;12.25;;;4.18;;
69485;SDS011;56677;51.710;5.366;2024-01-25T18:58:23;8.13;;;3.78;;
69485;SDS011;56677;51.710;5.366;2024-01-25T19:00:48;9.43;;;4.37;;
69485;SDS011;56677;51.710;5.366;2024-01-25T19:03:13;8.10;;;3.93;;
69485;SDS011;56677;51.710;5.366;2024-01-25T19:05:38;8.90;;;4.13;;
69485;SDS011;56677;51.710;5.366;2024-01-25T19:08:04;9.67;;;5.20;;
69485;SDS011;56677;51.710;5.366;2024-01-25T19:10:29;8.13;;;4.83;;
69485;SDS011;56677;51.710;5.366;2024-01-25T19:12:54;12.07;;;5.90;;
69485;SDS011;56677;51.710;5.366;2024-01-25T19:15:19;9.02;;;4.93;;
69485;SDS011;56677;51.710;5.366;2024-01-25T19:17:44;9.40;;;5.68;;
69485;SDS011;56677;51.710;5.366;2024-01-25T19:20:10;9.60;;;5.63;;
69485;SDS011;56677;51.710;5.366;2024-01-25T19:22:35;10.33;;;6.47;;
69485;SDS011;56677;51.710;5.366;2024-01-25T19:25:00;15.40;;;6.87;;
69485;SDS011;56677;51.710;5.366;2024-01-25T19:27:26;9.53;;;6.43;;
69485;SDS011;56677;51.710;5.366;2024-01-25T19:29:51;11.70;;;6.67;;
69485;SDS011;56677;51.710;5.366;2024-01-25T19:32:16;10.77;;;7.03;;
69485;SDS011;56677;51.710;5.366;2024-01-25T19:34:41;10.40;;;7.03;;
69485;SDS011;56677;51.710;5.366;2024-01-25T19:37:06;8.93;;;6.72;;
69485;SDS011;56677;51.710;5.366;2024-01-25T19:39:31;12.33;;;7.77;;
69485;SDS011;56677;51.710;5.366;2024-01-25T19:41:56;9.18;;;7.15;;
69485;SDS011;56677;51.710;5.366;2024-01-25T19:44:22;10.00;;;7.17;;
69485;SDS011;56677;51.710;5.366;2024-01-25T19:46:47;11.13;;;7.68;;
69485;SDS011;56677;51.710;5.366;2024-01-25T19:49:12;12.27;;;7.78;;
69485;SDS011;56677;51.710;5.366;2024-01-25T19:51:37;15.25;;;8.73;;
69485;SDS011;56677;51.710;5.366;2024-01-25T19:54:02;14.52;;;8.32;;
69485;SDS011;56677;51.710;5.366;2024-01-25T19:56:28;12.40;;;7.77;;
69485;SDS011;56677;51.710;5.366;2024-01-25T19:58:53;13.47;;;8.37;;
69485;SDS011;56677;51.710;5.366;2024-01-25T20:01:18;16.05;;;8.82;;
69485;SDS011;56677;51.710;5.366;2024-01-25T20:03:43;14.77;;;8.80;;
69485;SDS011;56677;51.710;5.366;2024-01-25T20:06:13;13.43;;;8.00;;
69485;SDS011;56677;51.710;5.366;2024-01-25T20:08:38;18.10;;;8.50;;
69485;SDS011;56677;51.710;5.366;2024-01-25T20:11:03;14.23;;;7.30;;
69485;SDS011;56677;51.710;5.366;2024-01-25T20:13:28;17.48;;;8.50;;
69485;SDS011;56677;51.710;5.366;2024-01-25T20:15:53;16.15;;;8.23;;
69485;SDS011;56677;51.710;5.366;2024-01-25T20:18:19;17.07;;;8.17;;
69485;SDS011;56677;51.710;5.366;2024-01-25T20:20:44;13.82;;;8.00;;
69485;SDS011;56677;51.710;5.366;2024-01-25T20:23:09;15.55;;;8.50;;
69485;SDS011;56677;51.710;5.366;2024-01-25T20:25:34;12.80;;;8.00;;
69485;SDS011;56677;51.710;5.366;2024-01-25T20:27:59;15.45;;;8.63;;